createdAt,value
2022-12-23T00:00:45.559Z,99665.25
2022-12-23T00:03:12.764Z,99651.63
2022-12-23T00:05:40.871Z,99671.06
2022-12-23T00:08:08.727Z,99655.50
2022-12-23T00:10:39.895Z,99666.66
2022-12-23T00:13:26.715Z,99645.88
2022-12-23T00:16:05.531Z,99661.44
2022-12-23T00:18:33.705Z,99668.63
2022-12-23T00:21:08.290Z,99665.34
2022-12-23T00:23:39.990Z,99659.72
2022-12-23T00:26:07.506Z,99650.50
2022-12-23T00:28:34.383Z,99658.28
2022-12-23T00:31:05.583Z,99657.31
2022-12-23T00:33:36.427Z,99669.34
2022-12-23T00:36:31.281Z,99666.53
2022-12-23T00:39:18.318Z,99663.97
2022-12-23T00:42:04.025Z,99665.81
2022-12-23T00:44:31.120Z,99666.66
2022-12-23T00:46:57.985Z,99672.50
2022-12-23T00:49:43.082Z,99668.81
2022-12-23T00:52:15.548Z,99666.47
2022-12-23T00:54:42.635Z,99658.81
2022-12-23T00:57:09.585Z,99658.75
2022-12-23T00:59:36.531Z,99658.63
2022-12-23T01:02:22.592Z,99653.63
2022-12-23T01:05:08.964Z,99666.13
2022-12-23T01:07:35.931Z,99671.09
2022-12-23T01:10:03.690Z,99676.66
2022-12-23T01:12:30.835Z,99670.44
2022-12-23T01:14:57.734Z,99669.47
2022-12-23T01:17:24.752Z,99674.88
2022-12-23T01:19:51.765Z,99671.34
2022-12-23T01:22:18.725Z,99678.72
2022-12-23T01:24:45.664Z,99688.34
2022-12-23T01:27:12.563Z,99664.47
2022-12-23T01:29:39.484Z,99686.28
2022-12-23T01:32:06.494Z,99678.06
2022-12-23T01:34:37.186Z,99680.47
2022-12-23T01:37:05.686Z,99680.22
2022-12-23T01:39:32.800Z,99684.28
2022-12-23T01:42:18.475Z,99689.00
2022-12-23T01:44:59.152Z,99701.28
2022-12-23T01:47:39.524Z,99702.00
2022-12-23T01:50:26.834Z,99693.38
2022-12-23T01:53:08.069Z,99703.72
2022-12-23T01:55:48.400Z,99703.72
2022-12-23T01:58:22.417Z,99707.38
2022-12-23T02:01:08.607Z,99703.13
2022-12-23T02:03:45.230Z,99701.03
2022-12-23T02:06:58.061Z,99702.44
2022-12-23T02:09:39.030Z,99707.72
2022-12-23T02:13:02.602Z,99702.44
2022-12-23T02:16:07.630Z,99701.31
2022-12-23T02:19:10.410Z,99704.72
2022-12-23T02:22:26.489Z,99705.72
2022-12-23T02:25:30.991Z,99707.28
2022-12-23T02:28:36.497Z,99716.47
2022-12-23T02:31:15.922Z,99723.53
2022-12-23T02:34:06.257Z,99731.44
2022-12-23T02:37:03.184Z,99735.41
2022-12-23T02:39:51.707Z,99729.31
2022-12-23T02:42:25.918Z,99739.06
2022-12-23T02:45:33.500Z,99742.72
2022-12-23T02:48:38.823Z,99742.00
2022-12-23T02:51:08.382Z,99736.78
2022-12-23T02:53:41.543Z,99741.03
2022-12-23T02:56:10.444Z,99752.63
2022-12-23T02:58:48.725Z,99749.22
2022-12-23T03:01:18.005Z,99741.75
2022-12-23T03:03:47.565Z,99743.03
2022-12-23T03:06:23.260Z,99755.19
2022-12-23T03:08:56.447Z,99747.66
2022-12-23T03:11:40.075Z,99749.38
2022-12-23T03:14:30.500Z,99752.31
2022-12-23T03:17:53.575Z,99755.81
2022-12-23T03:20:53.211Z,99763.31
2022-12-23T03:23:30.339Z,99768.56
2022-12-23T03:26:23.254Z,99774.03
2022-12-23T03:28:58.409Z,99774.91
2022-12-23T03:31:30.346Z,99774.44
2022-12-23T03:34:15.541Z,99774.44
2022-12-23T03:36:51.717Z,99787.75
2022-12-23T03:39:29.148Z,99787.84
2022-12-23T03:42:24.865Z,99793.22
2022-12-23T03:45:27.942Z,99793.50
2022-12-23T03:47:59.405Z,99792.66
2022-12-23T03:50:28.739Z,99799.03
2022-12-23T03:53:02.347Z,99799.59
2022-12-23T03:55:39.059Z,99790.69
2022-12-23T03:58:42.525Z,99805.81
2022-12-23T04:01:54.866Z,99799.72
2022-12-23T04:04:52.598Z,99808.66
2022-12-23T04:07:33.101Z,99815.13
2022-12-23T04:10:00.416Z,99811.13
2022-12-23T04:12:28.236Z,99818.22
2022-12-23T04:14:55.231Z,99811.25
2022-12-23T04:17:22.251Z,99816.59
2022-12-23T04:19:49.254Z,99814.94
2022-12-23T04:22:16.774Z,99822.50
2022-12-23T04:24:43.745Z,99827.63
2022-12-23T04:27:14.368Z,99837.63
2022-12-23T04:29:41.628Z,99841.16
2022-12-23T04:32:08.736Z,99831.28
2022-12-23T04:34:36.092Z,99842.63
2022-12-23T04:37:03.146Z,99831.69
2022-12-23T04:39:30.077Z,99845.09
2022-12-23T04:41:56.984Z,99845.94
2022-12-23T04:44:24.121Z,99846.94
2022-12-23T04:46:51.217Z,99835.13
2022-12-23T04:49:18.413Z,99850.00
2022-12-23T04:51:45.313Z,99849.13
2022-12-23T04:54:12.438Z,99855.47
2022-12-23T04:56:39.315Z,99858.31
2022-12-23T04:59:06.344Z,99859.13
2022-12-23T05:01:33.344Z,99850.78
2022-12-23T05:04:00.504Z,99874.25
2022-12-23T05:06:27.567Z,99871.84
2022-12-23T05:08:54.503Z,99855.78
2022-12-23T05:11:21.452Z,99866.75
2022-12-23T05:13:48.449Z,99868.09
2022-12-23T05:16:15.392Z,99872.72
2022-12-23T05:18:42.379Z,99868.22
2022-12-23T05:21:09.292Z,99879.34
2022-12-23T05:23:36.812Z,99875.69
2022-12-23T05:26:04.090Z,99884.84
2022-12-23T05:28:31.105Z,99901.41
2022-12-23T05:31:06.660Z,99908.72
2022-12-23T05:33:35.121Z,99907.00
2022-12-23T05:36:02.058Z,99889.84
2022-12-23T05:38:29.048Z,99905.72
2022-12-23T05:40:56.118Z,99907.16
2022-12-23T05:43:23.925Z,99911.06
2022-12-23T05:45:51.630Z,99913.03
2022-12-23T05:48:18.776Z,99919.00
2022-12-23T05:50:45.667Z,99914.97
2022-12-23T05:53:13.153Z,99911.81
2022-12-23T05:55:40.129Z,99911.00
2022-12-23T05:58:07.061Z,99914.28
2022-12-23T06:00:34.440Z,99918.31
2022-12-23T06:03:01.770Z,99916.09
2022-12-23T06:05:28.810Z,99923.53
2022-12-23T06:07:55.888Z,99939.38
2022-12-23T06:10:22.858Z,99929.38
2022-12-23T06:12:49.898Z,99936.69
2022-12-23T06:15:17.005Z,99944.97
2022-12-23T06:17:44.018Z,99932.44
2022-12-23T06:20:17.883Z,99952.19
2022-12-23T06:22:47.290Z,99944.38
2022-12-23T06:25:14.196Z,99948.03
2022-12-23T06:27:41.211Z,99947.28
2022-12-23T06:30:10.094Z,99954.13
2022-12-23T06:32:38.824Z,99942.94
2022-12-23T06:35:07.831Z,99941.47
2022-12-23T06:37:35.379Z,99950.84
2022-12-23T06:40:02.395Z,99954.75
2022-12-23T06:42:29.422Z,99954.75
2022-12-23T06:44:56.349Z,99958.28
2022-12-23T06:47:23.751Z,99958.53
2022-12-23T06:49:50.775Z,99962.19
2022-12-23T06:52:18.006Z,99961.19
2022-12-23T06:54:45.070Z,99971.69
2022-12-23T06:57:13.275Z,99969.88
2022-12-23T06:59:40.206Z,99973.16
2022-12-23T07:02:07.303Z,99982.78
2022-12-23T07:04:34.383Z,99966.31
2022-12-23T07:07:01.353Z,99993.25
2022-12-23T07:09:28.284Z,99994.63
2022-12-23T07:11:55.545Z,99993.88
2022-12-23T07:14:22.744Z,100000.22
2022-12-23T07:16:50.135Z,100019.59
2022-12-23T07:19:17.148Z,100009.22
2022-12-23T07:21:44.074Z,100013.00
2022-12-23T07:24:11.007Z,100017.50
2022-12-23T07:26:38.158Z,100006.50
2022-12-23T07:29:05.223Z,100017.22
2022-12-23T07:31:32.233Z,100021.28
2022-12-23T07:33:59.192Z,100027.50
2022-12-23T07:36:26.157Z,100031.03
2022-12-23T07:38:53.009Z,100035.63
2022-12-23T07:41:19.978Z,100024.31
2022-12-23T07:43:47.346Z,100024.44
2022-12-23T07:46:14.413Z,100028.69
2022-12-23T07:48:42.026Z,100027.25
2022-12-23T07:51:09.383Z,100041.63
2022-12-23T07:53:36.455Z,100037.25
2022-12-23T07:56:03.628Z,100019.69
2022-12-23T07:58:30.971Z,100027.50
2022-12-23T08:01:04.342Z,100033.97
2022-12-23T08:03:31.915Z,100040.66
2022-12-23T08:06:09.658Z,100041.53
2022-12-23T08:08:37.400Z,100036.66
2022-12-23T08:11:07.624Z,100045.03
2022-12-23T08:13:37.988Z,100046.97
2022-12-23T08:16:06.948Z,100051.50
2022-12-23T08:18:40.298Z,100052.47
2022-12-23T08:21:18.959Z,100066.41
2022-12-23T08:23:49.719Z,100066.63
2022-12-23T08:26:25.300Z,100069.53
2022-12-23T08:28:55.656Z,100068.56
2022-12-23T08:31:30.064Z,100073.69
2022-12-23T08:34:00.573Z,100075.50
2022-12-23T08:36:32.252Z,100076.13
2022-12-23T08:39:03.246Z,100073.34
2022-12-23T08:41:33.876Z,100068.94
2022-12-23T08:44:00.871Z,100068.59
2022-12-23T08:46:28.261Z,100064.31
2022-12-23T08:48:55.827Z,100074.78
2022-12-23T08:51:24.795Z,100071.13
2022-12-23T08:53:59.845Z,100079.19
2022-12-23T08:56:36.409Z,100071.13
2022-12-23T08:59:03.913Z,100069.56
2022-12-23T09:01:33.897Z,100067.63
2022-12-23T09:04:07.322Z,100070.31
2022-12-23T09:06:38.969Z,100060.91
2022-12-23T09:09:08.145Z,100068.72
2022-12-23T09:11:35.705Z,100077.13
2022-12-23T09:14:03.968Z,100071.84
2022-12-23T09:16:31.850Z,100088.94
2022-12-23T09:18:59.110Z,100081.47
2022-12-23T09:21:26.244Z,100098.09
2022-12-23T09:23:53.412Z,100082.22
2022-12-23T09:26:25.090Z,100092.94
2022-12-23T09:28:52.817Z,100089.16
2022-12-23T09:31:22.137Z,100086.63
2022-12-23T09:33:52.962Z,100093.81
2022-12-23T09:36:22.283Z,100089.06
2022-12-23T09:38:57.914Z,100091.63
2022-12-23T09:42:06.407Z,100079.31
2022-12-23T09:44:53.616Z,100085.06
2022-12-23T09:47:25.465Z,100074.56
2022-12-23T09:49:58.430Z,100088.47
2022-12-23T09:52:43.378Z,100091.63
2022-12-23T09:55:12.338Z,100100.16
2022-12-23T09:58:04.012Z,100103.72
2022-12-23T10:00:44.372Z,100102.84
2022-12-23T10:03:38.407Z,100092.97
2022-12-23T10:06:20.428Z,100102.38
2022-12-23T10:08:53.888Z,100088.09
2022-12-23T10:11:38.085Z,100075.91
2022-12-23T10:14:24.633Z,100083.97
2022-12-23T10:16:58.184Z,100066.75
2022-12-23T10:19:42.152Z,100066.53
2022-12-23T10:22:27.217Z,100056.41
2022-12-23T10:24:57.680Z,100053.84
2022-12-23T10:27:34.286Z,100049.44
2022-12-23T10:30:34.403Z,100040.34
2022-12-23T10:33:25.275Z,100034.72
2022-12-23T10:36:14.282Z,100036.56
2022-12-23T10:39:13.986Z,100035.44
2022-12-23T10:42:19.063Z,100051.91
2022-12-23T10:44:57.748Z,100052.88
2022-12-23T10:47:48.077Z,100054.59
2022-12-23T10:50:40.066Z,100040.94
2022-12-23T10:53:13.530Z,100041.16
2022-12-23T10:55:40.621Z,100029.84
2022-12-23T10:58:18.497Z,100034.09
2022-12-23T11:00:57.083Z,100038.72
2022-12-23T11:03:33.969Z,100048.13
2022-12-23T11:06:02.261Z,100035.19
2022-12-23T11:08:31.339Z,100042.66
2022-12-23T11:11:01.463Z,100042.66
2022-12-23T11:13:41.998Z,100047.63
2022-12-23T11:16:29.127Z,100037.75
2022-12-23T11:19:19.392Z,100017.13
2022-12-23T11:21:58.994Z,100016.16
2022-12-23T11:24:35.431Z,100007.53
2022-12-23T11:27:08.068Z,100008.25
2022-12-23T11:29:40.592Z,100019.34
2022-12-23T11:32:21.668Z,100008.72
2022-12-23T11:34:50.684Z,100009.56
2022-12-23T11:37:40.423Z,100013.88
2022-12-23T11:40:29.582Z,100000.81
2022-12-23T11:43:01.719Z,100000.31
2022-12-23T11:45:34.444Z,99996.66
2022-12-23T11:48:04.685Z,99984.81
2022-12-23T11:50:38.192Z,99976.91
2022-12-23T11:53:11.147Z,99975.66
2022-12-23T11:55:58.889Z,99982.25
2022-12-23T11:58:28.085Z,99987.13
2022-12-23T12:01:00.843Z,99967.75
2022-12-23T12:03:33.073Z,99966.63
2022-12-23T12:06:04.090Z,99954.22
2022-12-23T12:08:38.525Z,99945.69
2022-12-23T12:11:14.044Z,99946.28
2022-12-23T12:13:49.109Z,99947.84
2022-12-23T12:16:31.048Z,99949.31
2022-12-23T12:19:05.595Z,99936.03
2022-12-23T12:21:38.408Z,99917.88
2022-12-23T12:24:19.585Z,99918.47
2022-12-23T12:26:52.605Z,99923.72
2022-12-23T12:29:45.845Z,99916.78
2022-12-23T12:32:50.206Z,99913.34
2022-12-23T12:35:31.680Z,99908.25
2022-12-23T12:38:20.335Z,99913.25
2022-12-23T12:40:56.823Z,99899.22
2022-12-23T12:43:32.463Z,99899.22
2022-12-23T12:46:31.187Z,99904.81
2022-12-23T12:49:19.425Z,99903.94
2022-12-23T12:52:07.771Z,99908.47
2022-12-23T12:54:41.837Z,99902.25
2022-12-23T12:57:15.861Z,99893.50
2022-12-23T12:59:44.891Z,99880.09
2022-12-23T13:02:20.764Z,99893.88
2022-12-23T13:05:07.071Z,99904.59
2022-12-23T13:07:58.888Z,99902.00
2022-12-23T13:10:44.992Z,99880.22
2022-12-23T13:13:46.035Z,99868.78
2022-12-23T13:16:31.427Z,99879.97
2022-12-23T13:19:19.603Z,99867.53
2022-12-23T13:22:21.506Z,99866.81
2022-12-23T13:25:18.456Z,99874.97
2022-12-23T13:28:16.365Z,99864.25
2022-12-23T13:30:51.954Z,99849.25
2022-12-23T13:34:10.165Z,99834.06
2022-12-23T13:36:52.669Z,99825.66
2022-12-23T13:40:33.863Z,99836.28
2022-12-23T13:43:22.402Z,99843.94
2022-12-23T13:45:53.677Z,99850.53
2022-12-23T13:48:55.005Z,99847.47
2022-12-23T13:51:35.381Z,99847.47
2022-12-23T13:54:24.501Z,99831.16
2022-12-23T13:57:12.661Z,99845.03
2022-12-23T13:59:43.537Z,99833.22
2022-12-23T14:02:35.222Z,99829.06
2022-12-23T14:05:36.375Z,99828.59
2022-12-23T14:08:18.288Z,99830.19
2022-12-23T14:11:20.557Z,99831.16
2022-12-23T14:13:50.517Z,99829.69
2022-12-23T14:16:50.531Z,99812.28
2022-12-23T14:19:25.841Z,99813.72
2022-12-23T14:22:11.680Z,99804.84
2022-12-23T14:25:21.079Z,99791.44
2022-12-23T14:28:11.349Z,99791.31
2022-12-23T14:30:45.814Z,99778.66
2022-12-23T14:33:18.873Z,99789.88
2022-12-23T14:35:45.765Z,99787.19
2022-12-23T14:38:15.559Z,99784.22
2022-12-23T14:40:42.493Z,99780.72
2022-12-23T14:43:51.251Z,99775.72
2022-12-23T14:46:36.467Z,99770.38
2022-12-23T14:49:37.111Z,99767.78
2022-12-23T14:51:51.238Z,99752.88
2022-12-23T14:54:38.683Z,99747.25
2022-12-23T14:57:18.287Z,99751.03
2022-12-23T15:00:01.894Z,99744.94
2022-12-23T15:02:37.528Z,99747.22
2022-12-23T15:05:05.238Z,99724.31
2022-12-23T15:07:39.263Z,99729.72
2022-12-23T15:10:09.155Z,99739.13
2022-12-23T15:12:39.640Z,99732.09
2022-12-23T15:15:28.623Z,99730.00
2022-12-23T15:18:14.093Z,99722.66
2022-12-23T15:20:41.131Z,99715.69
2022-12-23T15:23:19.875Z,99713.44
2022-12-23T15:25:48.922Z,99727.78
2022-12-23T15:28:19.614Z,99732.16
2022-12-23T15:30:54.687Z,99727.06
2022-12-23T15:36:31.909Z,99729.63
2022-12-23T15:39:00.721Z,99720.31
2022-12-23T15:41:28.666Z,99701.88
2022-12-23T15:44:01.660Z,99704.03
2022-12-23T15:46:30.567Z,99708.94
2022-12-23T15:48:58.239Z,99713.13
2022-12-23T15:54:30.551Z,99699.75
2022-12-23T15:57:00.637Z,99690.72
2022-12-23T15:59:48.910Z,99702.41
2022-12-23T16:05:35.586Z,99699.47
2022-12-23T16:08:29.147Z,99694.03
2022-12-23T16:11:20.974Z,99702.56
2022-12-23T16:13:58.850Z,99702.00
2022-12-23T16:16:33.496Z,99704.91
2022-12-23T16:19:01.987Z,99694.97
2022-12-23T16:21:35.712Z,99701.03
2022-12-23T16:24:08.557Z,99686.69
2022-12-23T16:26:42.732Z,99685.00
2022-12-23T16:29:11.613Z,99677.63
2022-12-23T16:31:42.793Z,99670.78
2022-12-23T16:34:13.450Z,99665.69
2022-12-23T16:36:40.413Z,99664.00
2022-12-23T16:39:07.619Z,99665.69
2022-12-23T16:41:35.788Z,99652.06
2022-12-23T16:44:03.492Z,99643.19
2022-12-23T16:46:34.200Z,99644.31
2022-12-23T16:49:05.668Z,99640.97
2022-12-23T16:51:34.145Z,99615.41
2022-12-23T16:54:02.940Z,99614.94
2022-12-23T16:56:37.591Z,99627.72
2022-12-23T16:59:05.370Z,99629.19
2022-12-23T17:01:36.584Z,99618.34
2022-12-23T17:04:05.152Z,99628.09
2022-12-23T17:06:32.079Z,99617.50
2022-12-23T17:08:59.299Z,99620.28
2022-12-23T17:11:48.361Z,99616.63
2022-12-23T17:14:24.982Z,99607.91
2022-12-23T17:16:52.328Z,99608.84
2022-12-23T17:19:27.332Z,99602.63
2022-12-23T17:22:01.417Z,99602.63
2022-12-23T17:24:29.272Z,99604.47
2022-12-23T17:26:59.207Z,99598.97
2022-12-23T17:29:27.121Z,99591.22
2022-12-23T17:31:54.550Z,99600.91
2022-12-23T17:34:24.497Z,99592.78
2022-12-23T17:36:52.820Z,99594.59
2022-12-23T17:39:20.847Z,99588.53
2022-12-23T17:41:48.652Z,99583.28
2022-12-23T17:44:17.654Z,99586.69
2022-12-23T17:46:45.906Z,99590.94
2022-12-23T17:49:14.045Z,99591.06
2022-12-23T17:51:42.544Z,99596.28
2022-12-23T17:54:25.100Z,99596.06
2022-12-23T17:56:52.901Z,99593.50
2022-12-23T17:59:20.406Z,99596.19
2022-12-23T18:01:48.008Z,99586.34
2022-12-23T18:04:14.966Z,99596.91
2022-12-23T18:06:41.905Z,99592.66
2022-12-23T18:09:08.861Z,99597.88
2022-12-23T18:11:46.873Z,99598.84
2022-12-23T18:14:18.401Z,99587.75
2022-12-23T18:16:46.305Z,99589.19
2022-12-23T18:19:18.637Z,99593.03
2022-12-23T18:21:46.416Z,99609.38
2022-12-23T18:24:13.640Z,99603.66
2022-12-23T18:26:41.538Z,99603.94
2022-12-23T18:29:08.467Z,99610.41
2022-12-23T18:31:37.427Z,99607.72
2022-12-23T18:34:04.563Z,99606.13
2022-12-23T18:36:34.038Z,99597.00
2022-12-23T18:39:01.033Z,99594.44
2022-12-23T18:41:27.997Z,99588.50
2022-12-23T18:43:55.308Z,99584.09
2022-12-23T18:46:22.709Z,99579.63
2022-12-23T18:48:49.966Z,99565.34
2022-12-23T18:51:20.238Z,99569.16
2022-12-23T18:53:48.408Z,99577.03
2022-12-23T18:56:23.967Z,99570.00
2022-12-23T18:58:51.003Z,99580.00
2022-12-23T19:01:19.450Z,99584.63
2022-12-23T19:03:47.576Z,99563.31
2022-12-23T19:06:15.652Z,99577.53
2022-12-23T19:08:43.893Z,99589.22
2022-12-23T19:11:17.165Z,99599.72
2022-12-23T19:13:46.909Z,99589.84
2022-12-23T19:16:17.244Z,99594.38
2022-12-23T19:18:45.804Z,99593.75
2022-12-23T19:21:13.384Z,99604.47
2022-12-23T19:23:41.703Z,99598.84
2022-12-23T19:26:16.299Z,99596.44
2022-12-23T19:28:44.686Z,99593.88
2022-12-23T19:31:14.215Z,99605.25
2022-12-23T19:33:45.479Z,99597.28
2022-12-23T19:36:22.553Z,99581.81
2022-12-23T19:38:50.101Z,99596.91
2022-12-23T19:41:17.823Z,99602.22
2022-12-23T19:43:46.799Z,99589.25
2022-12-23T19:46:18.371Z,99588.84
2022-12-23T19:48:52.235Z,99583.22
2022-12-23T19:51:19.735Z,99597.09
2022-12-23T19:53:51.491Z,99589.72
2022-12-23T19:56:24.256Z,99598.44
2022-12-23T19:58:53.336Z,99592.19
2022-12-23T20:01:25.351Z,99595.34
2022-12-23T20:03:56.061Z,99601.19
2022-12-23T20:06:30.290Z,99604.50
2022-12-23T20:09:00.997Z,99606.63
2022-12-23T20:11:30.660Z,99624.00
2022-12-23T20:13:58.432Z,99615.84
2022-12-23T20:16:26.691Z,99614.59
2022-12-23T20:18:54.395Z,99624.00
2022-12-23T20:21:21.612Z,99620.78
2022-12-23T20:23:49.236Z,99632.38
2022-12-23T20:26:18.699Z,99643.41
2022-12-23T20:28:46.027Z,99651.31
2022-12-23T20:31:16.591Z,99645.06
2022-12-23T20:33:43.957Z,99634.84
2022-12-23T20:36:14.431Z,99640.09
2022-12-23T20:38:44.452Z,99648.91
2022-12-23T20:41:15.558Z,99662.78
2022-12-23T20:43:46.050Z,99660.78
2022-12-23T20:46:20.600Z,99650.91
2022-12-23T20:48:48.038Z,99649.09
2022-12-23T20:51:25.679Z,99649.53
2022-12-23T20:53:56.109Z,99666.69
2022-12-23T20:56:27.454Z,99668.53
2022-12-23T20:58:55.188Z,99671.91
2022-12-23T21:01:24.485Z,99674.69
2022-12-23T21:03:52.138Z,99664.19
2022-12-23T21:06:19.718Z,99666.78
2022-12-23T21:08:47.405Z,99676.28
2022-12-23T21:11:15.616Z,99680.38
2022-12-23T21:13:43.903Z,99693.38
2022-12-23T21:16:13.383Z,99683.56
2022-12-23T21:18:45.432Z,99683.44
2022-12-23T21:21:13.103Z,99691.41
2022-12-23T21:23:41.974Z,99683.19
2022-12-23T21:26:19.418Z,99700.66
2022-12-23T21:28:47.915Z,99700.22
2022-12-23T21:31:17.786Z,99707.31
2022-12-23T21:33:48.445Z,99704.34
2022-12-23T21:36:20.409Z,99690.66
2022-12-23T21:38:49.392Z,99690.16
2022-12-23T21:41:23.267Z,99699.75
2022-12-23T21:43:50.651Z,99705.88
2022-12-23T21:46:22.590Z,99680.78
2022-12-23T21:48:50.375Z,99723.56
2022-12-23T21:51:23.116Z,99758.47
2022-12-23T21:53:53.295Z,99708.59
2022-12-23T21:56:26.451Z,99698.41
2022-12-23T21:59:03.057Z,99701.88
2022-12-23T22:01:30.886Z,99715.66
2022-12-23T22:03:58.372Z,99723.97
2022-12-23T22:06:29.342Z,99739.16
2022-12-23T22:08:57.061Z,99731.31
2022-12-23T22:11:28.804Z,99732.31
2022-12-23T22:13:57.534Z,99736.53
2022-12-23T22:16:26.956Z,99721.75
2022-12-23T22:18:55.606Z,99728.69
2022-12-23T22:21:25.204Z,99734.75
2022-12-23T22:23:53.788Z,99746.13
2022-12-23T22:26:28.481Z,99746.72
2022-12-23T22:28:58.693Z,99747.91
2022-12-23T22:31:38.544Z,99742.66
2022-12-23T22:34:07.109Z,99745.53
2022-12-23T22:36:34.823Z,99746.50
2022-12-23T22:39:02.651Z,99738.41
2022-12-23T22:41:30.796Z,99744.63
2022-12-23T22:43:59.080Z,99750.06
2022-12-23T22:46:27.234Z,99746.97
2022-12-23T22:48:54.889Z,99750.38
2022-12-23T22:51:26.283Z,99746.16
2022-12-23T22:53:54.097Z,99746.16
2022-12-23T22:56:22.852Z,99749.69
2022-12-23T22:58:51.853Z,99757.28
2022-12-23T23:01:31.953Z,99750.91
2022-12-23T23:04:01.435Z,99756.38
2022-12-23T23:06:37.606Z,99767.09
2022-12-23T23:09:07.771Z,99779.31
2022-12-23T23:11:35.391Z,99775.69
2022-12-23T23:14:02.506Z,99786.09
2022-12-23T23:16:29.745Z,99783.41
2022-12-23T23:18:58.631Z,99791.84
2022-12-23T23:21:28.364Z,99787.59
2022-12-23T23:23:57.224Z,99786.00
2022-12-23T23:26:27.496Z,99794.66
2022-12-23T23:28:56.046Z,99786.88
2022-12-23T23:34:11.612Z,99787.38
2022-12-23T23:36:38.637Z,99788.25
2022-12-23T23:39:06.020Z,99787.72
2022-12-23T23:41:32.963Z,99791.84
2022-12-23T23:43:59.966Z,99774.56
2022-12-23T23:46:26.938Z,99784.56
2022-12-23T23:48:55.178Z,99783.94
2022-12-23T23:51:22.066Z,99785.19
2022-12-23T23:53:49.025Z,99780.06
2022-12-23T23:56:22.059Z,99779.94
2022-12-23T23:58:50.939Z,99784.59
